createdAt,value
2022-07-25T00:02:15.069Z,9.45
2022-07-25T00:04:44.276Z,9.63
2022-07-25T00:07:12.064Z,9.93
2022-07-25T00:09:40.139Z,10.30
2022-07-25T00:12:08.513Z,10.73
2022-07-25T00:14:39.151Z,9.57
2022-07-25T00:17:07.234Z,9.35
2022-07-25T00:19:35.037Z,10.20
2022-07-25T00:22:03.113Z,10.13
2022-07-25T00:24:30.928Z,10.20
2022-07-25T00:26:58.786Z,9.85
2022-07-25T00:29:26.620Z,10.32
2022-07-25T00:31:54.592Z,9.90
2022-07-25T00:34:22.320Z,9.93
2022-07-25T00:36:50.352Z,11.05
2022-07-25T00:39:18.416Z,12.18
2022-07-25T00:41:46.196Z,9.50
2022-07-25T00:44:28.100Z,10.18
2022-07-25T00:46:56.753Z,10.27
2022-07-25T00:49:38.317Z,10.30
2022-07-25T00:52:19.262Z,9.25
2022-07-25T00:55:06.130Z,9.98
2022-07-25T00:57:47.441Z,9.38
2022-07-25T01:04:07.992Z,9.82
2022-07-25T01:06:36.984Z,9.27
2022-07-25T01:09:05.014Z,10.95
2022-07-25T01:11:32.769Z,9.75
2022-07-25T01:14:00.721Z,10.40
2022-07-25T01:16:28.996Z,10.18
2022-07-25T01:18:56.871Z,9.18
2022-07-25T01:21:26.553Z,10.82
2022-07-25T01:23:54.675Z,9.50
2022-07-25T01:26:22.412Z,10.65
2022-07-25T01:28:50.418Z,10.15
2022-07-25T01:31:18.456Z,9.07
2022-07-25T01:33:46.442Z,9.95
2022-07-25T01:36:14.415Z,9.52
2022-07-25T01:38:42.370Z,10.23
2022-07-25T01:41:10.411Z,9.10
2022-07-25T01:43:38.405Z,9.48
2022-07-25T01:46:06.442Z,9.35
2022-07-25T01:48:34.537Z,9.98
2022-07-25T01:51:02.540Z,9.60
2022-07-25T01:53:31.608Z,10.57
2022-07-25T01:56:00.838Z,10.32
2022-07-25T01:58:30.861Z,9.38
2022-07-25T02:00:58.696Z,10.10
2022-07-25T02:03:32.560Z,10.27
2022-07-25T02:06:03.546Z,9.73
2022-07-25T02:08:32.319Z,9.80
2022-07-25T02:11:01.362Z,10.93
2022-07-25T02:13:29.130Z,10.57
2022-07-25T02:15:56.791Z,10.18
2022-07-25T02:18:24.705Z,11.02
2022-07-25T02:20:52.511Z,10.88
2022-07-25T02:23:20.594Z,10.90
2022-07-25T02:25:49.776Z,12.18
2022-07-25T02:28:17.557Z,11.82
2022-07-25T02:30:45.408Z,12.27
2022-07-25T02:33:13.378Z,11.55
2022-07-25T02:35:41.160Z,12.55
2022-07-25T02:38:08.976Z,11.27
2022-07-25T02:40:40.362Z,11.77
2022-07-25T02:43:08.182Z,11.90
2022-07-25T02:45:36.317Z,11.05
2022-07-25T02:48:05.102Z,10.75
2022-07-25T02:50:33.311Z,11.43
2022-07-25T02:53:01.064Z,11.32
2022-07-25T02:55:29.605Z,10.00
2022-07-25T02:57:57.546Z,10.50
2022-07-25T03:00:26.328Z,10.40
2022-07-25T03:02:54.103Z,10.50
2022-07-25T03:05:22.014Z,10.57
2022-07-25T03:07:50.005Z,10.48
2022-07-25T03:10:18.026Z,10.23
2022-07-25T03:12:46.432Z,10.68
2022-07-25T03:15:15.042Z,10.00
2022-07-25T03:17:42.959Z,11.32
2022-07-25T03:20:11.764Z,10.77
2022-07-25T03:22:40.034Z,10.38
2022-07-25T03:25:15.560Z,10.20
2022-07-25T03:27:49.900Z,10.55
2022-07-25T03:30:17.888Z,12.55
2022-07-25T03:32:45.685Z,10.77
2022-07-25T03:35:13.642Z,9.77
2022-07-25T03:37:41.702Z,10.88
2022-07-25T03:40:11.353Z,11.30
2022-07-25T03:42:38.991Z,10.37
2022-07-25T03:45:07.272Z,11.23
2022-07-25T03:47:35.464Z,10.52
2022-07-25T03:50:03.424Z,10.98
2022-07-25T03:52:31.306Z,11.38
2022-07-25T03:54:59.441Z,10.50
2022-07-25T03:57:27.126Z,10.35
2022-07-25T03:59:54.953Z,10.75
2022-07-25T04:02:22.836Z,9.98
2022-07-25T04:04:52.144Z,11.70
2022-07-25T04:07:19.949Z,10.98
2022-07-25T04:09:47.992Z,11.93
2022-07-25T04:12:16.000Z,10.18
2022-07-25T04:14:43.890Z,11.60
2022-07-25T04:17:11.777Z,10.95
2022-07-25T04:19:39.859Z,12.00
2022-07-25T04:22:08.236Z,11.88
2022-07-25T04:24:35.949Z,9.63
2022-07-25T04:27:03.810Z,10.75
2022-07-25T04:29:31.789Z,10.93
2022-07-25T04:31:59.862Z,11.43
2022-07-25T04:34:27.747Z,12.10
2022-07-25T04:36:56.589Z,12.18
2022-07-25T04:39:24.285Z,11.20
2022-07-25T04:41:52.356Z,11.95
2022-07-25T04:44:20.143Z,11.88
2022-07-25T04:46:47.975Z,11.90
2022-07-25T04:49:16.137Z,13.38
2022-07-25T04:51:44.100Z,14.10
2022-07-25T04:54:12.094Z,12.55
2022-07-25T04:56:39.890Z,13.38
2022-07-25T04:59:07.753Z,12.70
2022-07-25T05:01:36.204Z,14.20
2022-07-25T05:04:04.685Z,12.57
2022-07-25T05:06:33.466Z,14.23
2022-07-25T05:09:01.327Z,18.63
2022-07-25T05:11:29.078Z,11.85
2022-07-25T05:13:56.915Z,13.30
2022-07-25T05:16:24.979Z,19.90
2022-07-25T05:18:53.140Z,17.38
2022-07-25T05:21:21.027Z,18.75
2022-07-25T05:23:48.845Z,26.70
2022-07-25T05:26:16.707Z,14.00
2022-07-25T05:28:44.775Z,14.55
2022-07-25T05:31:12.590Z,16.55
2022-07-25T05:33:40.481Z,18.00
2022-07-25T05:36:09.341Z,32.35
2022-07-25T05:38:37.598Z,17.77
2022-07-25T05:41:05.620Z,27.33
2022-07-25T05:43:33.433Z,22.58
2022-07-25T05:46:05.914Z,23.17
2022-07-25T05:48:33.813Z,46.40
2022-07-25T05:51:01.692Z,110.47
2022-07-25T05:53:29.653Z,28.55
2022-07-25T05:55:57.508Z,26.50
2022-07-25T05:58:29.633Z,29.23
2022-07-25T06:00:59.165Z,32.47
2022-07-25T06:03:27.030Z,39.47
2022-07-25T06:05:56.830Z,45.13
2022-07-25T06:08:24.914Z,39.80
2022-07-25T06:10:52.809Z,46.58
2022-07-25T06:13:21.129Z,72.00
2022-07-25T06:15:51.836Z,66.30
2022-07-25T06:18:20.001Z,75.32
2022-07-25T06:20:47.853Z,95.55
2022-07-25T06:23:16.445Z,79.95
2022-07-25T06:25:49.922Z,90.47
2022-07-25T06:28:18.499Z,84.72
2022-07-25T06:30:46.825Z,112.03
2022-07-25T06:33:15.130Z,184.60
2022-07-25T06:35:42.918Z,226.02
2022-07-25T06:38:10.896Z,164.63
2022-07-25T06:40:39.463Z,114.40
2022-07-25T06:43:07.386Z,153.40
2022-07-25T06:45:35.241Z,145.85
2022-07-25T06:48:03.179Z,141.25
2022-07-25T06:50:31.576Z,282.17
2022-07-25T06:52:59.434Z,173.57
2022-07-25T06:55:27.220Z,370.73
2022-07-25T06:57:54.930Z,307.02
2022-07-25T07:00:23.132Z,162.10
2022-07-25T07:02:53.595Z,178.05
2022-07-25T07:05:22.104Z,230.25
2022-07-25T07:07:49.971Z,359.10
2022-07-25T07:10:19.096Z,516.88
2022-07-25T07:12:46.973Z,280.30
2022-07-25T07:15:15.671Z,235.65
2022-07-25T07:17:43.684Z,239.18
2022-07-25T07:20:12.484Z,244.00
2022-07-25T07:22:46.371Z,333.45
2022-07-25T07:25:19.652Z,385.50
2022-07-25T07:27:48.807Z,442.20
2022-07-25T07:30:20.852Z,502.02
2022-07-25T07:32:51.889Z,592.45
2022-07-25T07:35:20.055Z,643.47
2022-07-25T07:37:48.189Z,500.23
2022-07-25T07:40:18.678Z,362.33
2022-07-25T07:42:48.416Z,521.00
2022-07-25T07:45:25.844Z,685.75
2022-07-25T07:47:55.637Z,550.55
2022-07-25T07:50:27.133Z,564.67
2022-07-25T07:52:56.884Z,465.05
2022-07-25T07:55:44.355Z,593.28
2022-07-25T07:58:15.968Z,647.35
2022-07-25T08:00:46.310Z,582.40
2022-07-25T08:03:17.291Z,780.85
2022-07-25T08:05:46.944Z,768.58
2022-07-25T08:08:16.218Z,812.20
2022-07-25T08:10:47.363Z,804.17
2022-07-25T08:13:20.916Z,826.05
2022-07-25T08:15:54.114Z,598.63
2022-07-25T08:18:22.099Z,939.72
2022-07-25T08:20:51.137Z,914.47
2022-07-25T08:23:20.243Z,999.90
2022-07-25T08:25:48.507Z,890.67
2022-07-25T08:28:16.508Z,999.90
2022-07-25T08:30:44.467Z,999.90
2022-07-25T08:33:13.951Z,999.90
2022-07-25T08:35:48.048Z,950.63
2022-07-25T08:38:16.217Z,691.20
2022-07-25T08:40:44.061Z,699.60
2022-07-25T08:43:16.857Z,379.80
2022-07-25T08:45:53.492Z,381.05
2022-07-25T08:48:26.576Z,206.40
2022-07-25T08:50:57.523Z,999.90
2022-07-25T08:53:35.115Z,999.90
2022-07-25T08:56:13.777Z,999.90
2022-07-25T08:58:44.696Z,999.90
2022-07-25T09:01:14.140Z,999.90
2022-07-25T09:03:45.651Z,301.50
2022-07-25T09:06:22.654Z,999.90
2022-07-25T09:08:59.227Z,774.08
2022-07-25T09:11:29.934Z,827.97
2022-07-25T09:14:16.309Z,784.67
2022-07-25T09:16:45.620Z,390.98
2022-07-25T09:21:45.417Z,620.88
2022-07-25T09:24:18.113Z,564.38
2022-07-25T09:26:50.685Z,999.90
2022-07-25T09:29:30.677Z,999.90
2022-07-25T09:31:59.927Z,999.90
2022-07-25T09:34:36.876Z,405.83
2022-07-25T09:37:07.720Z,999.90
2022-07-25T09:39:39.705Z,999.90
2022-07-25T09:42:15.586Z,570.15
2022-07-25T09:44:44.549Z,387.02
2022-07-25T09:47:14.025Z,528.53
2022-07-25T09:49:43.084Z,731.33
2022-07-25T09:52:12.339Z,483.10
2022-07-25T09:54:40.852Z,937.20
2022-07-25T09:57:08.678Z,265.70
2022-07-25T09:59:37.667Z,892.42
2022-07-25T10:02:26.616Z,819.23
2022-07-25T10:05:04.308Z,494.03
2022-07-25T10:07:36.719Z,522.85
2022-07-25T10:10:05.451Z,999.90
2022-07-25T10:12:33.444Z,596.08
2022-07-25T10:15:19.461Z,879.58
2022-07-25T10:17:48.906Z,537.95
2022-07-25T10:20:27.555Z,572.67
2022-07-25T10:22:57.057Z,729.15
2022-07-25T10:25:26.190Z,887.65
2022-07-25T10:28:03.946Z,807.97
2022-07-25T10:30:36.482Z,443.10
2022-07-25T10:33:25.217Z,612.63
2022-07-25T10:35:53.173Z,404.75
2022-07-25T10:38:29.260Z,607.95
2022-07-25T10:41:01.449Z,843.55
2022-07-25T10:43:29.758Z,781.47
2022-07-25T10:45:59.166Z,773.58
2022-07-25T10:48:30.277Z,999.90
2022-07-25T10:51:02.514Z,999.90
2022-07-25T10:54:00.612Z,614.35
2022-07-25T10:56:29.379Z,685.05
2022-07-25T10:59:01.643Z,604.00
2022-07-25T11:01:38.319Z,999.90
2022-07-25T11:04:16.440Z,773.08
2022-07-25T11:06:44.295Z,812.47
2022-07-25T11:09:26.917Z,584.60
2022-07-25T11:11:58.907Z,999.90
2022-07-25T11:14:33.454Z,829.95
2022-07-25T11:17:14.680Z,609.95
2022-07-25T11:19:44.591Z,999.13
2022-07-25T11:22:12.686Z,895.38
2022-07-25T11:24:42.736Z,951.10
2022-07-25T11:27:21.366Z,837.40
2022-07-25T11:29:49.654Z,627.03
2022-07-25T11:32:18.114Z,778.47
2022-07-25T11:34:52.930Z,604.20
2022-07-25T11:37:21.318Z,999.90
2022-07-25T11:39:49.593Z,813.70
2022-07-25T11:42:18.911Z,999.90
2022-07-25T11:44:52.294Z,655.20
2022-07-25T11:47:33.294Z,999.90
2022-07-25T11:50:04.034Z,779.55
2022-07-25T11:52:35.017Z,789.47
2022-07-25T11:55:08.710Z,516.47
2022-07-25T11:57:44.663Z,925.60
2022-07-25T12:00:20.132Z,776.20
2022-07-25T12:02:50.486Z,573.65
2022-07-25T12:05:23.599Z,886.45
2022-07-25T12:07:53.322Z,755.53
2022-07-25T12:10:32.289Z,606.20
2022-07-25T12:13:02.951Z,579.17
2022-07-25T12:15:33.635Z,425.00
2022-07-25T12:18:02.461Z,637.00
2022-07-25T12:20:35.378Z,861.10
2022-07-25T12:23:06.225Z,793.90
2022-07-25T12:25:37.190Z,802.25
2022-07-25T12:28:05.930Z,558.70
2022-07-25T12:30:34.663Z,356.02
2022-07-25T12:33:02.826Z,874.75
2022-07-25T12:35:30.878Z,819.88
2022-07-25T12:37:59.046Z,612.20
2022-07-25T12:40:26.929Z,651.72
2022-07-25T12:42:54.874Z,556.20
2022-07-25T12:45:23.295Z,741.60
2022-07-25T12:47:51.487Z,856.58
2022-07-25T12:50:19.674Z,591.13
2022-07-25T12:52:48.081Z,585.80
2022-07-25T12:55:18.735Z,677.40
2022-07-25T12:57:47.486Z,647.80
2022-07-25T13:00:18.370Z,665.17
2022-07-25T13:02:46.586Z,811.45
2022-07-25T13:05:14.337Z,794.35
2022-07-25T13:07:42.372Z,777.88
2022-07-25T13:10:11.126Z,857.65
2022-07-25T13:12:39.210Z,625.90
2022-07-25T13:15:08.675Z,655.60
2022-07-25T13:17:36.681Z,954.70
2022-07-25T13:20:05.303Z,634.45
2022-07-25T13:22:33.544Z,780.58
2022-07-25T13:25:01.964Z,999.90
2022-07-25T13:27:30.283Z,593.65
2022-07-25T13:29:58.182Z,719.55
2022-07-25T13:32:29.760Z,461.80
2022-07-25T13:34:57.943Z,541.35
2022-07-25T13:37:25.767Z,595.97
2022-07-25T13:39:53.612Z,835.17
2022-07-25T13:42:21.505Z,999.90
2022-07-25T13:44:49.415Z,579.28
2022-07-25T13:47:18.783Z,845.47
2022-07-25T13:49:46.555Z,773.78
2022-07-25T13:52:14.357Z,881.03
2022-07-25T13:54:42.229Z,803.72
2022-07-25T13:57:10.229Z,988.90
2022-07-25T13:59:38.385Z,806.70
2022-07-25T14:02:06.905Z,734.58
2022-07-25T14:04:34.791Z,606.92
2022-07-25T14:07:02.988Z,802.45
2022-07-25T14:09:31.263Z,699.78
2022-07-25T14:11:59.420Z,924.00
2022-07-25T14:14:27.392Z,999.90
2022-07-25T14:16:56.160Z,999.90
2022-07-25T14:19:24.492Z,825.30
2022-07-25T14:21:52.279Z,827.63
2022-07-25T14:24:19.969Z,702.42
2022-07-25T14:26:49.463Z,583.42
2022-07-25T14:29:17.241Z,804.78
2022-07-25T14:31:45.163Z,932.53
2022-07-25T14:34:15.647Z,975.45
2022-07-25T14:36:44.990Z,852.15
2022-07-25T14:39:12.874Z,999.90
2022-07-25T14:41:41.476Z,999.90
2022-07-25T14:44:09.674Z,999.90
2022-07-25T14:49:07.814Z,999.90
2022-07-25T14:51:36.109Z,999.90
2022-07-25T14:54:03.956Z,944.72
2022-07-25T14:56:32.123Z,630.78
2022-07-25T14:59:00.236Z,999.90
2022-07-25T15:01:28.268Z,999.90
2022-07-25T15:03:59.017Z,999.90
2022-07-25T15:06:29.159Z,999.90
2022-07-25T15:08:57.589Z,962.75
2022-07-25T15:11:25.638Z,999.90
2022-07-25T15:13:53.623Z,989.58
2022-07-25T15:16:21.906Z,986.45
2022-07-25T15:19:14.477Z,999.90
2022-07-25T15:21:38.733Z,904.47
2022-07-25T15:24:07.746Z,999.90
2022-07-25T15:26:36.458Z,999.90
2022-07-25T15:29:08.436Z,999.90
2022-07-25T15:31:37.298Z,882.38
2022-07-25T15:34:05.474Z,924.58
2022-07-25T15:36:33.540Z,999.90
2022-07-25T15:39:01.347Z,889.45
2022-07-25T15:41:29.454Z,826.95
2022-07-25T15:43:57.595Z,720.90
2022-07-25T15:46:25.615Z,767.65
2022-07-25T15:48:54.027Z,720.08
2022-07-25T15:51:21.773Z,650.58
2022-07-25T15:53:49.582Z,628.72
2022-07-25T15:56:18.032Z,643.25
2022-07-25T15:58:49.723Z,767.92
2022-07-25T16:01:18.052Z,474.80
2022-07-25T16:03:46.133Z,487.05
2022-07-25T16:06:18.806Z,556.40
2022-07-25T16:08:48.659Z,536.97
2022-07-25T16:11:24.994Z,574.47
2022-07-25T16:13:52.997Z,451.92
2022-07-25T16:16:22.273Z,410.05
2022-07-25T16:18:50.529Z,333.90
2022-07-25T16:21:18.718Z,427.83
2022-07-25T16:23:46.515Z,369.70
2022-07-25T16:26:14.522Z,318.35
2022-07-25T16:28:42.639Z,364.38
2022-07-25T16:31:10.579Z,343.30
2022-07-25T16:33:38.943Z,241.73
2022-07-25T16:36:07.492Z,233.70
2022-07-25T16:38:35.509Z,322.60
2022-07-25T16:41:03.462Z,275.65
2022-07-25T16:43:31.713Z,349.33
2022-07-25T16:45:59.794Z,258.67
2022-07-25T16:48:27.978Z,432.70
2022-07-25T16:50:56.160Z,323.50
2022-07-25T16:53:23.943Z,394.20
2022-07-25T16:55:51.818Z,448.02
2022-07-25T16:58:19.957Z,299.13
2022-07-25T17:00:48.280Z,286.45
2022-07-25T17:03:16.245Z,273.17
2022-07-25T17:05:44.308Z,192.00
2022-07-25T17:08:12.089Z,197.15
2022-07-25T17:10:39.953Z,192.40
2022-07-25T17:13:07.894Z,219.15
2022-07-25T17:15:35.658Z,177.10
2022-07-25T17:18:04.753Z,168.23
2022-07-25T17:20:32.655Z,177.65
2022-07-25T17:23:00.538Z,192.98
2022-07-25T17:25:28.468Z,208.18
2022-07-25T17:27:56.323Z,153.82
2022-07-25T17:30:24.377Z,255.80
2022-07-25T17:32:53.451Z,297.38
2022-07-25T17:35:21.684Z,255.93
2022-07-25T17:37:49.748Z,204.63
2022-07-25T17:40:17.827Z,139.88
2022-07-25T17:42:47.887Z,142.43
2022-07-25T17:45:16.013Z,313.60
2022-07-25T17:47:45.136Z,141.95
2022-07-25T17:50:13.597Z,153.65
2022-07-25T17:52:41.645Z,153.52
2022-07-25T17:55:10.444Z,189.63
2022-07-25T17:57:42.768Z,120.60
2022-07-25T18:00:11.927Z,99.75
2022-07-25T18:02:41.197Z,132.75
2022-07-25T18:05:09.446Z,105.40
2022-07-25T18:07:39.544Z,88.53
2022-07-25T18:12:35.204Z,80.82
2022-07-25T18:15:03.394Z,92.50
2022-07-25T18:17:31.419Z,100.78
2022-07-25T18:19:59.374Z,70.50
2022-07-25T18:22:27.247Z,63.33
2022-07-25T18:24:55.250Z,74.15
2022-07-25T18:27:23.246Z,80.70
2022-07-25T18:29:51.379Z,83.15
2022-07-25T18:32:19.595Z,104.22
2022-07-25T18:34:47.625Z,65.45
2022-07-25T18:37:15.611Z,52.75
2022-07-25T18:39:44.365Z,51.15
2022-07-25T18:42:12.461Z,34.53
2022-07-25T18:44:40.277Z,46.00
2022-07-25T18:47:08.501Z,62.75
2022-07-25T18:49:36.369Z,38.13
2022-07-25T18:52:05.086Z,42.88
2022-07-25T18:54:33.471Z,35.85
2022-07-25T18:57:01.300Z,23.65
2022-07-25T18:59:29.298Z,25.35
2022-07-25T19:01:57.505Z,25.58
2022-07-25T19:04:26.575Z,22.30
2022-07-25T19:06:54.573Z,25.05
2022-07-25T19:09:22.374Z,18.27
2022-07-25T19:11:50.596Z,30.45
2022-07-25T19:14:18.904Z,20.58
2022-07-25T19:16:46.984Z,19.48
2022-07-25T19:19:15.098Z,18.08
2022-07-25T19:21:42.913Z,26.30
2022-07-25T19:24:11.569Z,26.95
2022-07-25T19:26:40.123Z,19.02
2022-07-25T19:29:09.028Z,17.45
2022-07-25T19:31:40.713Z,16.38
2022-07-25T19:34:09.036Z,18.38
2022-07-25T19:36:38.490Z,23.63
2022-07-25T19:39:06.593Z,18.45
2022-07-25T19:41:34.545Z,19.45
2022-07-25T19:44:02.514Z,16.02
2022-07-25T19:46:34.580Z,17.88
2022-07-25T19:49:04.779Z,15.35
2022-07-25T19:51:33.611Z,15.70
2022-07-25T19:54:05.624Z,18.65
2022-07-25T19:56:34.919Z,14.65
2022-07-25T19:59:02.923Z,18.23
2022-07-25T20:01:34.914Z,18.05
2022-07-25T20:04:05.886Z,15.75
2022-07-25T20:06:34.851Z,18.02
2022-07-25T20:09:03.831Z,13.65
2022-07-25T20:11:32.480Z,15.43
2022-07-25T20:14:01.480Z,14.35
2022-07-25T20:16:29.263Z,14.45
2022-07-25T20:18:57.236Z,16.40
2022-07-25T20:21:25.450Z,15.52
2022-07-25T20:23:53.531Z,15.20
2022-07-25T20:26:21.960Z,16.00
2022-07-25T20:28:49.836Z,16.58
2022-07-25T20:31:22.385Z,14.82
2022-07-25T20:33:53.694Z,14.27
2022-07-25T20:36:21.698Z,16.42
2022-07-25T20:38:49.849Z,12.45
2022-07-25T20:41:17.807Z,13.15
2022-07-25T20:43:46.082Z,12.82
2022-07-25T20:46:13.970Z,14.40
2022-07-25T20:48:42.008Z,14.40
2022-07-25T20:51:13.232Z,17.08
2022-07-25T20:53:42.087Z,15.85
2022-07-25T20:56:10.203Z,17.77
2022-07-25T20:58:39.612Z,15.40
2022-07-25T21:01:07.529Z,14.88
2022-07-25T21:03:36.473Z,15.30
2022-07-25T21:06:04.582Z,16.08
2022-07-25T21:08:32.376Z,16.00
2022-07-25T21:11:00.196Z,15.75
2022-07-25T21:13:30.874Z,14.05
2022-07-25T21:16:01.880Z,16.25
2022-07-25T21:18:29.903Z,15.95
2022-07-25T21:20:57.877Z,14.82
2022-07-25T21:23:26.690Z,14.73
2022-07-25T21:25:54.567Z,14.68
2022-07-25T21:28:22.404Z,14.18
2022-07-25T21:30:50.321Z,16.08
2022-07-25T21:33:18.475Z,13.85
2022-07-25T21:35:47.395Z,14.63
2022-07-25T21:38:26.355Z,15.45
2022-07-25T21:40:56.882Z,14.80
2022-07-25T21:43:25.176Z,15.00
2022-07-25T21:45:53.696Z,14.13
2022-07-25T21:48:42.949Z,15.80
2022-07-25T21:51:18.928Z,15.23
2022-07-25T21:53:52.767Z,15.45
2022-07-25T21:56:20.900Z,16.33
2022-07-25T21:58:49.106Z,14.82
2022-07-25T22:01:18.872Z,14.15
2022-07-25T22:03:46.989Z,14.85
2022-07-25T22:06:14.776Z,15.52
2022-07-25T22:08:42.774Z,14.70
2022-07-25T22:11:16.318Z,12.65
2022-07-25T22:13:58.751Z,14.27
2022-07-25T22:16:26.530Z,13.82
2022-07-25T22:18:54.349Z,13.70
2022-07-25T22:21:22.110Z,14.38
2022-07-25T22:23:50.152Z,14.90
2022-07-25T22:26:20.584Z,13.93
2022-07-25T22:28:49.470Z,13.85
2022-07-25T22:31:18.150Z,14.52
2022-07-25T22:33:46.173Z,13.75
2022-07-25T22:36:14.086Z,14.75
2022-07-25T22:38:42.666Z,12.52
2022-07-25T22:41:11.608Z,13.27
2022-07-25T22:43:56.629Z,15.18
2022-07-25T22:46:30.830Z,16.70
2022-07-25T22:48:59.756Z,14.63
2022-07-25T22:51:29.135Z,13.43
2022-07-25T22:53:58.140Z,13.77
2022-07-25T22:56:27.205Z,12.52
2022-07-25T22:58:55.402Z,16.13
2022-07-25T23:01:23.624Z,13.23
2022-07-25T23:03:51.728Z,13.98
2022-07-25T23:06:21.696Z,13.55
2022-07-25T23:08:50.212Z,14.30
2022-07-25T23:11:18.217Z,14.27
2022-07-25T23:13:46.033Z,14.90
2022-07-25T23:16:14.028Z,14.27
2022-07-25T23:18:42.201Z,13.77
2022-07-25T23:21:10.113Z,14.23
2022-07-25T23:23:37.924Z,13.10
2022-07-25T23:26:05.711Z,13.90
2022-07-25T23:28:33.760Z,14.07
2022-07-25T23:31:01.462Z,15.13
2022-07-25T23:33:29.954Z,13.55
2022-07-25T23:35:58.646Z,13.32
2022-07-25T23:38:26.611Z,13.63
2022-07-25T23:40:55.100Z,14.95
2022-07-25T23:43:43.662Z,14.98
2022-07-25T23:46:10.993Z,14.70
2022-07-25T23:48:39.349Z,13.55
2022-07-25T23:51:08.037Z,15.15
2022-07-25T23:53:36.263Z,13.57
2022-07-25T23:56:04.357Z,14.13
2022-07-25T23:58:32.147Z,12.25
